Time;durP1;ratioP1;P1;durP2;ratioP2;P2;SDS_P1;SDS_P2;PMS_P1;PMS_P2;Temp;Humidity;BMP_temperature;BMP_pressure;BME280_temperature;BME280_humidity;BME280_pressure;Samples;Min_cycle;Max_cycle;Signal;HPM_P1;HPM_P2
2023/10/25 00:02:15;;;;;;;6.07;1.90;;;;;;;17.49;82.76;98130.34;4469518;31;33799;-80
2023/10/25 00:04:53;;;;;;;3.40;1.90;;;;;;;17.42;83.17;98134.31;4470600;32;33859;-78
2023/10/25 00:07:22;;;;;;;2.17;1.30;;;;;;;17.26;84.79;98126.63;4476941;31;32982;-79
2023/10/25 00:09:54;;;;;;;9.32;1.25;;;;;;;17.29;84.46;98122.94;4471061;32;34222;-79
2023/10/25 00:12:23;;;;;;;7.43;1.55;;;;;;;17.17;85.98;98114.09;4459146;31;33366;-78
2023/10/25 00:14:56;;;;;;;3.00;1.00;;;;;;;17.37;84.72;98106.72;4457980;32;33712;-78
2023/10/25 00:17:25;;;;;;;5.68;2.05;;;;;;;17.22;85.15;98100.69;4477819;32;33168;-79
2023/10/25 00:19:57;;;;;;;2.92;0.90;;;;;;;17.34;84.53;98101.69;4472746;32;33636;-79
2023/10/25 00:22:28;;;;;;;5.20;1.50;;;;;;;17.37;84.85;98104.09;4465653;31;34030;-80
2023/10/25 00:24:56;;;;;;;;;;;;;;;17.45;84.20;98101.81;4470322;31;34646;-78
2023/10/25 00:27:25;;;;;;;1.55;0.93;;;;;;;17.47;83.63;98099.94;4469499;32;33272;-78
2023/10/25 00:29:59;;;;;;;3.72;1.05;;;;;;;17.51;83.56;98095.31;4478213;32;35218;-80
2023/10/25 00:32:28;;;;;;;3.92;1.27;;;;;;;17.70;82.49;98095.75;4463518;31;34236;-80
2023/10/25 00:35:03;;;;;;;4.93;1.40;;;;;;;17.51;83.62;98095.31;4470772;31;34110;-78
2023/10/25 00:37:32;;;;;;;1.85;0.90;;;;;;;17.62;83.48;98091.03;4475629;32;34523;-78
2023/10/25 00:40:03;;;;;;;6.07;2.15;;;;;;;17.67;83.24;98088.09;4478566;32;33781;-78
2023/10/25 00:42:32;;;;;;;3.17;0.90;;;;;;;17.58;83.60;98080.84;4475866;31;34398;-80
2023/10/25 00:45:01;;;;;;;6.82;1.52;;;;;;;17.65;83.41;98075.09;4484856;31;33533;-80
2023/10/25 00:47:31;;;;;;;6.18;1.52;;;;;;;17.83;82.02;98085.28;4474634;31;32950;-80
2023/10/25 00:50:02;;;;;;;5.78;1.65;;;;;;;17.68;82.63;98085.34;4475648;32;33832;-78
2023/10/25 00:52:32;;;;;;;2.05;1.62;;;;;;;17.70;82.63;98085.25;4480394;32;33580;-78
2023/10/25 00:55:05;;;;;;;;;;;;;;;17.70;82.58;98085.25;4476157;31;33652;-79
2023/10/25 00:57:34;;;;;;;9.60;1.75;;;;;;;17.68;82.94;98079.28;4490433;31;32998;-80
2023/10/25 01:00:08;;;;;;;6.15;1.15;;;;;;;17.49;83.71;98064.81;4491199;31;34566;-81
2023/10/25 01:02:37;;;;;;;3.15;1.30;;;;;;;17.44;84.75;98061.62;4484980;31;32687;-80
2023/10/25 01:05:10;;;;;;;4.57;1.23;;;;;;;17.32;84.44;98061.62;4477843;32;34152;-82
2023/10/25 01:07:41;;;;;;;3.30;1.55;;;;;;;17.35;84.79;98054.41;4469252;31;33669;-81
2023/10/25 01:10:10;;;;;;;7.65;3.30;;;;;;;17.31;84.62;98037.19;4469594;31;32703;-79
2023/10/25 01:12:39;;;;;;;5.57;1.52;;;;;;;17.40;84.18;98026.09;4467724;31;33772;-80
2023/10/25 01:15:12;;;;;;;3.47;1.00;;;;;;;17.51;83.69;98009.63;4478254;32;34371;-79
2023/10/25 01:17:42;;;;;;;3.40;1.10;;;;;;;17.41;84.26;98011.22;4462920;31;33125;-79
2023/10/25 01:20:13;;;;;;;3.75;1.77;;;;;;;17.15;85.61;97998.06;4471186;32;33395;-79
2023/10/25 01:22:43;;;;;;;3.42;1.62;;;;;;;16.98;86.84;97988.72;4458919;32;33612;-78
2023/10/25 01:25:16;;;;;;;5.97;1.52;;;;;;;16.95;86.77;97982.84;4475463;32;34982;-79
2023/10/25 01:27:45;;;;;;;3.65;2.22;;;;;;;17.26;84.93;97986.88;4484476;31;32819;-78
2023/10/25 01:30:16;;;;;;;2.92;1.62;;;;;;;17.36;84.50;97984.47;4470631;32;33113;-80
2023/10/25 01:32:45;;;;;;;3.03;1.50;;;;;;;17.45;83.77;97989.91;4473131;32;34566;-79
2023/10/25 01:35:16;;;;;;;8.45;2.35;;;;;;;17.44;83.31;97967.25;4474662;32;33386;-80
2023/10/25 01:37:46;;;;;;;5.07;1.85;;;;;;;17.28;84.23;97964.03;4473639;32;32451;-81
2023/10/25 01:40:19;;;;;;;7.22;2.50;;;;;;;17.25;85.09;97964.22;4473867;32;33003;-80
2023/10/25 01:42:51;;;;;;;5.25;2.22;;;;;;;17.42;83.98;97976.16;4472194;32;33242;-79
2023/10/25 01:45:22;;;;;;;3.17;1.48;;;;;;;17.41;84.12;97977.12;4472098;31;33708;-79
2023/10/25 01:47:50;;;;;;;8.75;2.30;;;;;;;17.76;82.14;97979.09;4464296;32;34986;-78
2023/10/25 01:50:21;;;;;;;3.22;1.42;;;;;;;17.51;83.50;97974.72;4470113;31;33644;-80
2023/10/25 01:52:51;;;;;;;7.45;1.80;;;;;;;17.23;84.87;97971.38;4461962;31;35216;-80
2023/10/25 01:55:23;;;;;;;6.80;1.37;;;;;;;17.43;83.78;97981.31;4470498;31;33589;-79
2023/10/25 01:57:51;;;;;;;;;;;;;;;17.35;84.25;97962.66;4477668;32;32935;-79
2023/10/25 02:00:22;;;;;;;3.95;1.42;;;;;;;17.64;82.79;97970.31;4479898;32;33858;-79
2023/10/25 02:02:51;;;;;;;3.20;1.70;;;;;;;17.51;84.04;97959.81;4467376;31;33101;-80
2023/10/25 02:05:21;;;;;;;4.03;2.25;;;;;;;17.33;84.14;97955.84;4487816;31;33565;-79
2023/10/25 02:07:54;;;;;;;4.40;1.50;;;;;;;17.37;84.04;97957.31;4491455;31;33430;-80
2023/10/25 02:10:23;;;;;;;4.65;1.58;;;;;;;17.38;84.14;97959.81;4466761;31;35332;-78
2023/10/25 02:13:03;;;;;;;3.10;1.20;;;;;;;17.46;83.53;97960.13;4478622;31;33687;-78
2023/10/25 02:15:35;;;;;;;6.78;1.70;;;;;;;17.43;83.69;97962.97;4473768;32;33741;-80
2023/10/25 02:18:10;;;;;;;5.85;1.40;;;;;;;17.46;83.52;97960.13;4475572;32;32964;-78
2023/10/25 02:20:39;;;;;;;7.87;2.12;;;;;;;17.45;83.63;97958.47;4475277;32;33600;-79
2023/10/25 02:23:10;;;;;;;4.07;1.60;;;;;;;17.43;83.68;97962.97;4476175;32;34583;-80
2023/10/25 02:25:39;;;;;;;3.72;1.48;;;;;;;17.44;83.61;97962.00;4481286;32;34202;-78
2023/10/25 02:28:14;;;;;;;3.03;1.73;;;;;;;17.40;83.76;97947.47;4472603;32;33734;-81
2023/10/25 02:30:43;;;;;;;6.18;1.83;;;;;;;17.67;82.53;97944.69;4474283;32;33428;-80
2023/10/25 02:33:13;;;;;;;3.53;1.52;;;;;;;17.55;82.77;97940.31;4474968;32;33639;-81
2023/10/25 02:35:43;;;;;;;3.72;1.58;;;;;;;17.49;83.26;97951.22;4480347;31;34368;-82
2023/10/25 02:38:21;;;;;;;5.35;1.67;;;;;;;17.51;83.12;97946.69;4477072;32;33434;-81
2023/10/25 02:40:49;;;;;;;3.37;1.55;;;;;;;17.40;83.69;97936.97;4473847;32;33877;-82
2023/10/25 02:43:25;;;;;;;4.53;1.92;;;;;;;17.43;83.57;97935.94;4476848;31;33739;-81
2023/10/25 02:46:01;;;;;;;8.55;2.20;;;;;;;17.55;82.75;97934.25;4487264;31;33561;-81
2023/10/25 02:48:30;;;;;;;3.42;1.73;;;;;;;17.53;83.28;97931.72;4473147;31;33229;-81
2023/10/25 02:51:02;;;;;;;5.80;2.45;;;;;;;17.80;81.32;97935.97;4472596;32;33901;-80
2023/10/25 02:53:32;;;;;;;1.95;1.40;;;;;;;17.56;82.77;97936.72;4470966;31;34606;-81
2023/10/25 02:56:05;;;;;;;10.23;2.45;;;;;;;17.56;83.00;97935.91;4478844;32;33130;-81
2023/10/25 02:58:35;;;;;;;8.07;2.83;;;;;;;17.52;83.22;97929.19;4473770;32;33531;-82
2023/10/25 03:01:05;;;;;;;5.03;1.80;;;;;;;17.04;85.58;97914.97;4471853;32;33980;-83
2023/10/25 03:03:35;;;;;;;3.58;1.55;;;;;;;17.24;84.41;97905.72;4473830;31;33392;-82
2023/10/25 03:06:05;;;;;;;2.73;1.80;;;;;;;17.39;84.14;97906.44;4479961;32;33467;-81
2023/10/25 03:08:35;;;;;;;5.77;2.17;;;;;;;17.56;82.48;97910.50;4473306;32;32373;-81
2023/10/25 03:11:12;;;;;;;1.20;1.10;;;;;;;17.57;82.55;97914.84;4481045;32;33732;-82
2023/10/25 03:13:41;;;;;;;2.62;1.20;;;;;;;17.44;83.46;97908.75;4476468;32;34184;-80
2023/10/25 03:16:13;;;;;;;2.03;1.00;;;;;;;17.52;83.41;97909.06;4452575;32;33916;-82
2023/10/25 03:18:42;;;;;;;2.22;1.48;;;;;;;17.50;83.49;97921.44;4471312;32;32504;-80
2023/10/25 03:21:18;;;;;;;3.72;1.92;;;;;;;17.81;80.81;97925.41;4470161;32;34581;-82
2023/10/25 03:23:53;;;;;;;3.42;1.50;;;;;;;17.58;82.77;97934.84;4454067;32;33456;-84
2023/10/25 03:26:22;;;;;;;2.12;1.05;;;;;;;16.88;87.67;97934.44;4472216;32;33179;-83
2023/10/25 03:28:56;;;;;;;0.88;0.70;;;;;;;16.09;89.77;97952.59;4472853;32;33714;-83
2023/10/25 03:31:25;;;;;;;1.55;0.80;;;;;;;15.34;90.28;97973.72;4470364;32;33168;-82
2023/10/25 03:33:56;;;;;;;2.17;1.37;;;;;;;15.21;90.31;97985.00;4476525;31;34386;-79
2023/10/25 03:36:25;;;;;;;2.25;1.48;;;;;;;15.03;90.90;97979.06;4480427;32;34181;-82
2023/10/25 03:38:57;;;;;;;2.20;1.20;;;;;;;14.83;91.17;97978.47;4457664;32;31999;-82
2023/10/25 03:41:26;;;;;;;2.83;1.50;;;;;;;14.57;93.05;97979.97;4472405;32;33509;-81
2023/10/25 03:43:57;;;;;;;2.28;1.40;;;;;;;14.69;92.06;97976.66;4487539;31;34817;-81
2023/10/25 03:46:26;;;;;;;3.25;1.83;;;;;;;14.56;93.45;97978.28;4482105;31;33618;-81
2023/10/25 03:49:01;;;;;;;2.85;1.55;;;;;;;14.36;94.03;97981.16;4471991;31;33472;-83
2023/10/25 03:51:31;;;;;;;6.07;1.98;;;;;;;14.45;93.88;97984.09;4460331;31;34271;-81
2023/10/25 03:54:01;;;;;;;3.30;1.60;;;;;;;14.70;92.35;97980.13;4470677;31;33591;-81
2023/10/25 03:56:31;;;;;;;3.85;2.15;;;;;;;14.49;92.40;98001.22;4478871;32;33422;-80
2023/10/25 03:59:03;;;;;;;4.72;2.03;;;;;;;14.20;94.52;97986.38;4481567;32;33746;-80
2023/10/25 04:01:32;;;;;;;5.40;2.55;;;;;;;14.18;94.23;97993.44;4476245;32;33567;-81
2023/10/25 04:04:04;;;;;;;5.65;2.12;;;;;;;14.28;93.98;98005.91;4472202;32;34691;-82
2023/10/25 04:06:33;;;;;;;6.07;2.75;;;;;;;14.18;94.30;97998.66;4477282;32;34190;-82
2023/10/25 04:09:11;;;;;;;4.05;2.00;;;;;;;14.21;94.40;98003.72;4481162;32;33870;-80
2023/10/25 04:11:47;;;;;;;4.47;2.05;;;;;;;14.33;92.83;98008.25;4481650;32;33449;-81
2023/10/25 04:14:16;;;;;;;5.10;2.92;;;;;;;14.05;93.70;98019.34;4476360;32;33662;-82
2023/10/25 04:16:49;;;;;;;6.25;2.78;;;;;;;13.99;95.26;98011.84;4477814;32;34051;-82
2023/10/25 04:19:18;;;;;;;6.80;3.85;;;;;;;14.13;93.90;98021.53;4476500;32;32988;-82
2023/10/25 04:21:50;;;;;;;7.20;2.72;;;;;;;14.16;93.60;98022.22;4482190;32;33493;-82
2023/10/25 04:24:20;;;;;;;3.42;2.00;;;;;;;14.17;93.59;98028.28;4476942;32;33574;-83
2023/10/25 04:26:51;;;;;;;5.40;2.85;;;;;;;14.26;93.54;98033.81;4476828;32;35501;-82
2023/10/25 04:29:20;;;;;;;6.03;2.87;;;;;;;14.29;93.55;98038.88;4473269;32;33340;-82
2023/10/25 04:31:50;;;;;;;4.22;1.98;;;;;;;14.37;93.36;98043.66;4462225;31;33513;-82
2023/10/25 04:34:19;;;;;;;4.82;2.53;;;;;;;14.26;93.10;98043.44;4472639;32;33263;-82
2023/10/25 04:36:53;;;;;;;5.18;2.53;;;;;;;14.12;94.00;98048.53;4469591;31;33679;-82
2023/10/25 04:39:23;;;;;;;6.18;3.00;;;;;;;14.04;94.44;98039.38;4477646;32;33584;-82
2023/10/25 04:41:55;;;;;;;5.30;2.87;;;;;;;14.10;94.73;98043.41;4472851;31;34180;-82
2023/10/25 04:44:24;;;;;;;6.28;2.90;;;;;;;14.07;93.67;98054.00;4467400;31;33199;-83
2023/10/25 04:46:59;;;;;;;4.28;2.45;;;;;;;14.03;94.06;98048.09;4463068;31;33553;-83
2023/10/25 04:49:29;;;;;;;4.57;2.30;;;;;;;14.17;92.91;98054.34;4468670;32;33364;-82
2023/10/25 04:51:59;;;;;;;4.62;2.35;;;;;;;14.03;93.42;98053.31;4452543;31;311488;-82
2023/10/25 04:54:29;;;;;;;5.87;2.47;;;;;;;13.94;94.34;98064.25;4471417;31;33299;-83
2023/10/25 04:56:59;;;;;;;5.03;2.33;;;;;;;13.97;94.59;98061.47;4474435;32;33826;-82
2023/10/25 04:59:29;;;;;;;3.60;1.90;;;;;;;14.17;92.64;98063.00;4472597;32;33377;-81
2023/10/25 05:02:01;;;;;;;3.25;2.03;;;;;;;14.00;93.41;98071.72;4473440;32;33561;-82
2023/10/25 05:04:31;;;;;;;2.97;1.55;;;;;;;14.20;92.13;98090.69;4463295;32;32250;-83
2023/10/25 05:07:05;;;;;;;3.87;2.10;;;;;;;14.14;91.77;98071.00;4471914;31;33084;-83
2023/10/25 05:09:35;;;;;;;3.42;1.98;;;;;;;14.08;92.04;98082.59;4471558;32;33271;-82
2023/10/25 05:12:07;;;;;;;3.83;2.12;;;;;;;14.13;91.18;98089.34;4463270;32;34502;-82
2023/10/25 05:14:37;;;;;;;3.78;2.30;;;;;;;13.75;93.56;98085.22;4468771;32;34312;-81
2023/10/25 05:17:10;;;;;;;3.97;1.90;;;;;;;14.14;90.76;98096.25;4475200;32;33961;-83
2023/10/25 05:19:39;;;;;;;4.28;2.40;;;;;;;13.97;91.78;98094.53;4471559;32;34040;-81
2023/10/25 05:22:17;;;;;;;5.20;2.50;;;;;;;13.84;93.20;98099.53;4463566;31;34545;-81
2023/10/25 05:24:49;;;;;;;3.20;1.80;;;;;;;14.06;91.43;98105.31;4473524;31;33226;-82
2023/10/25 05:27:18;;;;;;;3.80;2.22;;;;;;;13.80;91.84;98098.84;4474407;31;34224;-82
2023/10/25 05:29:52;;;;;;;4.40;2.15;;;;;;;13.79;93.16;98114.56;4468029;31;33207;-79
2023/10/25 05:32:22;;;;;;;5.10;2.30;;;;;;;13.89;91.44;98118.37;4475197;31;33540;-80
2023/10/25 05:34:52;;;;;;;4.37;2.45;;;;;;;13.83;91.72;98123.91;4462051;31;35334;-80
2023/10/25 05:37:22;;;;;;;4.47;2.30;;;;;;;13.77;92.51;98132.91;4471830;31;34365;-82
2023/10/25 05:39:55;;;;;;;4.12;2.33;;;;;;;13.99;90.70;98134.37;4471790;32;33408;-80
2023/10/25 05:42:25;;;;;;;5.68;2.53;;;;;;;13.72;91.87;98141.84;4473237;32;33993;-80
2023/10/25 05:44:55;;;;;;;4.65;2.65;;;;;;;13.92;90.93;98146.03;4480530;32;34090;-82
2023/10/25 05:47:26;;;;;;;6.65;3.30;;;;;;;14.04;89.88;98161.09;4464291;31;32713;-79
2023/10/25 05:49:57;;;;;;;5.37;2.83;;;;;;;14.02;89.76;98150.72;4458167;32;34428;-79
2023/10/25 05:52:26;;;;;;;4.95;2.90;;;;;;;14.02;88.83;98163.75;4460107;31;37183;-81
2023/10/25 05:55:00;;;;;;;7.15;3.03;;;;;;;13.65;90.79;98163.03;4474742;31;33523;-79
2023/10/25 05:57:30;;;;;;;5.10;2.90;;;;;;;13.88;90.27;98174.03;4476370;32;34162;-79
2023/10/25 05:59:59;;;;;;;4.35;2.50;;;;;;;14.04;89.05;98180.16;4475950;31;33710;-79
2023/10/25 06:02:29;;;;;;;5.03;2.62;;;;;;;14.01;88.09;98190.75;4473513;32;33513;-80
2023/10/25 06:05:04;;;;;;;5.95;3.08;;;;;;;13.98;88.08;98208.31;4472372;32;33619;-79
2023/10/25 06:07:47;;;;;;;4.68;2.58;;;;;;;13.86;89.38;98209.78;4473911;32;33945;-80
2023/10/25 06:10:24;;;;;;;4.62;2.78;;;;;;;13.95;87.34;98227.56;4474164;32;33984;-78
2023/10/25 06:12:58;;;;;;;4.18;2.53;;;;;;;13.74;88.88;98226.88;4465124;32;33448;-79
2023/10/25 06:15:37;;;;;;;4.53;2.47;;;;;;;13.84;88.68;98246.38;4474010;32;33638;-81
2023/10/25 06:18:10;;;;;;;5.70;2.90;;;;;;;14.03;86.94;98235.84;4473975;31;34797;-79
2023/10/25 06:20:42;;;;;;;4.20;2.00;;;;;;;14.01;87.41;98249.88;4476734;31;33267;-81
2023/10/25 06:23:18;;;;;;;5.32;2.95;;;;;;;14.14;84.84;98265.75;4477303;31;33958;-79
2023/10/25 06:25:49;;;;;;;4.35;2.10;;;;;;;14.16;85.51;98269.97;4463907;31;34465;-81
2023/10/25 06:28:21;;;;;;;4.28;2.47;;;;;;;14.20;84.37;98268.03;4459966;31;32876;-79
2023/10/25 06:30:56;;;;;;;4.10;2.50;;;;;;;13.98;85.71;98276.94;4472653;32;32360;-79
2023/10/25 06:33:25;;;;;;;3.92;2.05;;;;;;;13.92;85.92;98274.66;4473495;32;33572;-79
2023/10/25 06:36:00;;;;;;;4.35;2.15;;;;;;;14.00;85.25;98287.31;4473309;32;33782;-80
2023/10/25 06:38:29;;;;;;;3.90;2.00;;;;;;;13.99;85.75;98289.06;4460410;31;34484;-80
2023/10/25 06:41:19;;;;;;;6.20;2.95;;;;;;;13.97;84.74;98290.06;4471878;32;33134;-81
2023/10/25 06:43:48;;;;;;;4.70;2.33;;;;;;;14.02;85.10;98291.53;4468674;31;32693;-80
2023/10/25 06:46:22;;;;;;;4.53;2.15;;;;;;;14.10;84.03;98301.56;4477253;32;33593;-79
2023/10/25 06:48:52;;;;;;;4.40;2.40;;;;;;;13.89;84.90;98290.44;4478740;32;34091;-80
2023/10/25 06:51:23;;;;;;;4.93;2.55;;;;;;;13.91;84.88;98277.31;4466915;32;32996;-82
2023/10/25 06:53:53;;;;;;;6.43;2.35;;;;;;;13.71;85.63;98279.16;4469210;32;33566;-83
2023/10/25 06:56:29;;;;;;;4.25;2.05;;;;;;;13.99;84.68;98280.38;4480525;32;34123;-81
2023/10/25 06:59:01;;;;;;;3.53;2.17;;;;;;;13.84;85.82;98272.44;4480794;32;34115;-84
2023/10/25 07:01:36;;;;;;;4.35;2.00;;;;;;;13.99;84.49;98268.22;4475519;32;32932;-81
2023/10/25 07:04:10;;;;;;;4.18;2.33;;;;;;;13.88;84.73;98266.13;4475621;32;33342;-82
2023/10/25 07:06:40;;;;;;;4.30;2.17;;;;;;;14.01;84.75;98263.78;4476664;32;34540;-83
2023/10/25 07:09:13;;;;;;;3.97;2.08;;;;;;;14.11;83.45;98279.81;4475789;32;34052;-82
2023/10/25 07:11:44;;;;;;;3.30;1.85;;;;;;;14.28;83.39;98282.41;4479896;32;34157;-83
2023/10/25 07:14:15;;;;;;;4.05;2.33;;;;;;;14.33;82.70;98290.00;4478460;31;35143;-83
2023/10/25 07:16:43;;;;;;;4.95;2.20;;;;;;;14.41;81.68;98282.59;4475195;32;33641;-81
2023/10/25 07:19:17;;;;;;;2.25;1.55;;;;;;;14.46;81.61;98278.00;4476460;32;34218;-82
2023/10/25 07:21:47;;;;;;;6.25;2.30;;;;;;;14.56;80.84;98265.34;4479034;32;33174;-84
2023/10/25 07:24:16;;;;;;;3.22;2.08;;;;;;;14.48;81.01;98265.72;4473584;31;34350;-81
2023/10/25 07:26:48;;;;;;;2.78;1.65;;;;;;;14.41;81.87;98279.16;4482378;31;33536;-80
2023/10/25 07:29:24;;;;;;;3.22;1.73;;;;;;;14.18;82.14;98268.13;4477381;32;33237;-83
2023/10/25 07:31:58;;;;;;;2.33;1.45;;;;;;;14.25;81.69;98277.31;4476190;32;33015;-83
2023/10/25 07:34:30;;;;;;;5.20;1.45;;;;;;;14.29;81.85;98276.25;4481637;32;34404;-82
2023/10/25 07:37:02;;;;;;;3.70;1.90;;;;;;;14.37;82.33;98275.00;4477524;32;34105;-81
2023/10/25 07:39:31;;;;;;;4.03;1.73;;;;;;;14.56;80.62;98272.34;4478014;32;34944;-83
2023/10/25 07:42:01;;;;;;;2.17;1.45;;;;;;;14.50;80.79;98287.34;4476529;32;34440;-82
2023/10/25 07:44:30;;;;;;;2.53;1.67;;;;;;;14.60;81.11;98294.75;4481603;31;33662;-81
2023/10/25 07:47:00;;;;;;;2.42;1.50;;;;;;;14.86;80.73;98314.25;4495834;31;33597;-82
2023/10/25 07:49:29;;;;;;;2.10;1.45;;;;;;;15.04;79.01;98320.28;4492862;31;33576;-83
2023/10/25 07:52:04;;;;;;;3.08;1.70;;;;;;;15.15;77.11;98326.63;4491329;31;32890;-81
2023/10/25 07:54:33;;;;;;;3.78;2.15;;;;;;;15.18;78.19;98330.00;4484909;31;33689;-83
2023/10/25 07:57:04;;;;;;;1.52;1.35;;;;;;;15.35;77.57;98328.16;4481002;32;34391;-83
2023/10/25 07:59:39;;;;;;;3.75;1.50;;;;;;;15.31;77.72;98331.00;4471714;32;34393;-81
2023/10/25 08:02:09;;;;;;;3.47;1.50;;;;;;;15.40;75.10;98329.69;4470812;31;33600;-82
2023/10/25 08:04:38;;;;;;;1.37;1.20;;;;;;;15.27;77.61;98346.03;4472087;32;34599;-82
2023/10/25 08:07:11;;;;;;;1.80;1.23;;;;;;;15.30;75.37;98351.06;4472513;32;34283;-82
2023/10/25 08:09:42;;;;;;;1.92;1.10;;;;;;;15.31;75.81;98355.34;4474860;32;33640;-82
2023/10/25 08:12:17;;;;;;;1.02;0.85;;;;;;;15.36;74.60;98362.94;4470331;32;33981;-82
2023/10/25 08:14:52;;;;;;;1.70;1.00;;;;;;;15.46;74.42;98355.47;4474087;32;33491;-80
2023/10/25 08:17:21;;;;;;;5.40;1.62;;;;;;;15.46;73.98;98363.31;4475814;32;33437;-80
2023/10/25 08:19:54;;;;;;;1.12;0.85;;;;;;;15.47;74.68;98355.37;4476361;32;33845;-81
2023/10/25 08:22:23;;;;;;;2.92;1.30;;;;;;;15.56;74.32;98357.50;4485477;31;34553;-82
2023/10/25 08:24:53;;;;;;;2.87;1.33;;;;;;;15.66;74.73;98362.22;4468050;31;34092;-81
2023/10/25 08:27:25;;;;;;;1.65;1.20;;;;;;;15.68;74.39;98353.38;4467274;31;34477;-82
2023/10/25 08:29:56;;;;;;;1.52;1.12;;;;;;;15.64;72.65;98346.63;4463269;31;34349;-82
2023/10/25 08:32:27;;;;;;;1.20;0.98;;;;;;;15.55;74.16;98355.78;4478648;31;33114;-81
2023/10/25 08:34:57;;;;;;;1.45;1.00;;;;;;;15.75;73.31;98364.34;4475269;31;33555;-81
2023/10/25 08:37:25;;;;;;;1.58;1.12;;;;;;;15.64;74.08;98385.00;4476546;31;33740;-82
2023/10/25 08:40:00;;;;;;;1.45;0.93;;;;;;;15.64;73.28;98388.44;4474124;31;33546;-82
2023/10/25 08:42:30;;;;;;;0.95;0.90;;;;;;;15.73;73.65;98390.59;4477016;31;33268;-84
2023/10/25 08:45:00;;;;;;;1.12;0.90;;;;;;;16.05;72.36;98415.91;4472968;31;34014;-81
2023/10/25 08:47:29;;;;;;;2.05;1.10;;;;;;;15.93;71.91;98425.25;4468372;31;33317;-82
2023/10/25 08:50:01;;;;;;;1.23;0.95;;;;;;;16.04;71.96;98425.50;4475781;31;34155;-80
2023/10/25 08:52:30;;;;;;;1.42;1.00;;;;;;;15.90;70.97;98438.47;4455802;31;33493;-82
2023/10/25 08:55:01;;;;;;;2.30;1.25;;;;;;;15.72;72.33;98440.34;4477198;31;33506;-81
2023/10/25 08:57:31;;;;;;;;;;;;;;;15.66;73.56;98436.28;4465907;31;34007;-80
2023/10/25 09:00:07;;;;;;;1.27;0.85;;;;;;;15.87;72.03;98434.28;4470479;31;34089;-81
2023/10/25 09:02:37;;;;;;;1.58;1.10;;;;;;;15.81;73.02;98450.31;4460338;31;33238;-81
2023/10/25 09:05:11;;;;;;;4.20;1.00;;;;;;;16.00;72.45;98442.31;4474284;31;34685;-83
2023/10/25 09:07:42;;;;;;;2.35;1.30;;;;;;;16.09;72.25;98441.81;4479720;31;33889;-81
2023/10/25 09:10:17;;;;;;;2.28;1.30;;;;;;;16.18;71.92;98451.72;4476348;31;33643;-81
2023/10/25 09:12:48;;;;;;;2.00;1.30;;;;;;;16.38;71.16;98465.47;4463638;31;33040;-81
2023/10/25 09:15:31;;;;;;;1.15;1.05;;;;;;;16.35;70.31;98470.88;4474753;31;33798;-83
2023/10/25 09:18:02;;;;;;;2.08;1.05;;;;;;;16.39;70.87;98468.00;4469593;31;33637;-81
2023/10/25 09:20:32;;;;;;;;;;;;;;;16.50;69.52;98474.41;4472399;31;33664;-82
2023/10/25 09:23:17;;;;;;;3.70;1.27;;;;;;;16.43;68.80;98490.47;4454177;32;33523;-80
2023/10/25 09:25:46;;;;;;;1.90;1.12;;;;;;;16.08;69.98;98495.03;4452913;32;33545;-81
2023/10/25 09:28:17;;;;;;;1.42;0.98;;;;;;;16.16;69.83;98481.53;4453799;32;34125;-82
2023/10/25 09:30:46;;;;;;;1.37;1.10;;;;;;;16.33;69.74;98488.44;4455779;32;34033;-80
2023/10/25 09:33:18;;;;;;;1.37;1.20;;;;;;;16.49;69.33;98494.50;4459805;32;33452;-80
2023/10/25 09:35:48;;;;;;;2.35;1.25;;;;;;;16.48;69.68;98498.06;4452072;32;33764;-81
2023/10/25 09:38:18;;;;;;;1.85;1.08;;;;;;;16.51;70.56;98486.56;4461215;32;34911;-82
2023/10/25 09:40:47;;;;;;;3.12;1.33;;;;;;;16.77;69.84;98485.94;4461068;32;34445;-80
2023/10/25 09:43:20;;;;;;;1.50;1.12;;;;;;;16.77;69.77;98487.72;4457884;32;33145;-81
2023/10/25 09:45:52;;;;;;;2.05;1.23;;;;;;;16.49;69.27;98494.50;4458328;32;34015;-80
2023/10/25 09:48:30;;;;;;;2.37;1.37;;;;;;;16.72;69.55;98505.44;4461835;32;34005;-80
2023/10/25 09:51:04;;;;;;;1.27;1.07;;;;;;;16.61;68.37;98509.50;4458836;32;33060;-80
2023/10/25 09:53:42;;;;;;;1.37;0.93;;;;;;;16.67;69.78;98500.47;4460102;32;33565;-82
2023/10/25 09:56:14;;;;;;;2.03;1.77;;;;;;;16.64;69.66;98487.56;4464049;32;33761;-80
2023/10/25 09:58:51;;;;;;;2.62;1.08;;;;;;;16.87;70.13;98485.44;4457284;32;34137;-81
2023/10/25 10:01:19;;;;;;;2.78;1.37;;;;;;;16.79;70.34;98481.47;4454261;32;33668;-79
2023/10/25 10:03:53;;;;;;;3.08;1.42;;;;;;;17.06;67.75;98484.25;4453209;32;33096;-81
2023/10/25 10:06:31;;;;;;;2.25;1.20;;;;;;;17.01;66.85;98475.81;4455130;32;33331;-80
2023/10/25 10:09:14;;;;;;;1.27;1.00;;;;;;;16.96;67.98;98485.75;4460258;32;34437;-79
2023/10/25 10:11:48;;;;;;;1.92;1.12;;;;;;;16.70;67.27;98481.97;4459296;32;33284;-80
2023/10/25 10:14:36;;;;;;;3.83;1.12;;;;;;;16.86;67.12;98500.28;4457257;32;32351;-79
2023/10/25 10:17:08;;;;;;;1.27;0.98;;;;;;;16.64;67.26;98490.16;4456031;32;33281;-80
2023/10/25 10:19:38;;;;;;;4.25;1.48;;;;;;;16.81;66.30;98497.09;4457203;32;33765;-81
2023/10/25 10:22:09;;;;;;;1.50;0.90;;;;;;;16.70;65.91;98481.97;4469813;32;34181;-82
2023/10/25 10:24:43;;;;;;;1.77;1.10;;;;;;;16.59;66.74;98479.94;4472560;31;32404;-81
2023/10/25 10:27:13;;;;;;;1.25;0.90;;;;;;;16.84;66.41;98487.28;4478723;31;33133;-79
2023/10/25 10:29:48;;;;;;;1.58;1.20;;;;;;;16.98;65.96;98494.31;4471027;31;34207;-81
2023/10/25 10:32:18;;;;;;;;;;;;;;;17.15;64.71;98477.63;4461239;32;34585;-80
2023/10/25 10:34:56;;;;;;;1.12;0.70;;;;;;;17.38;64.52;98481.50;4479291;32;34130;-79
2023/10/25 10:37:28;;;;;;;1.15;1.00;;;;;;;17.69;63.31;98469.13;4470015;31;35468;-81
2023/10/25 10:40:13;;;;;;;1.33;0.85;;;;;;;17.74;64.01;98476.72;4473237;31;33543;-81
2023/10/25 10:42:47;;;;;;;2.22;1.15;;;;;;;17.62;62.55;98468.66;4472321;31;33476;-81
2023/10/25 10:45:20;;;;;;;1.12;0.88;;;;;;;17.87;63.02;98470.63;4473936;31;33059;-82
2023/10/25 10:47:52;;;;;;;2.28;1.02;;;;;;;17.78;62.73;98460.66;4469782;31;34583;-80
2023/10/25 10:50:23;;;;;;;0.70;0.70;;;;;;;17.72;62.35;98468.94;4470269;31;34050;-81
2023/10/25 10:52:53;;;;;;;1.23;0.88;;;;;;;17.76;61.71;98472.19;4462165;31;33740;-79
2023/10/25 10:55:23;;;;;;;1.75;0.88;;;;;;;17.55;63.12;98469.13;4463960;31;32778;-80
2023/10/25 10:57:54;;;;;;;0.77;0.70;;;;;;;17.65;63.67;98462.37;4467406;32;34335;-79
2023/10/25 11:00:38;;;;;;;0.75;0.60;;;;;;;17.81;62.47;98473.66;4478933;32;34404;-80
2023/10/25 11:03:07;;;;;;;1.60;0.90;;;;;;;17.78;61.70;98462.47;4462860;31;32180;-80
2023/10/25 11:05:38;;;;;;;;;;;;;;;17.95;60.61;98453.56;4476637;31;33823;-83
2023/10/25 11:08:13;;;;;;;1.08;0.80;;;;;;;17.70;61.31;98452.44;4480094;31;34658;-79
2023/10/25 11:10:49;;;;;;;1.05;0.60;;;;;;;17.42;60.69;98448.91;4467748;31;34387;-80
2023/10/25 11:13:23;;;;;;;2.20;0.98;;;;;;;17.51;60.57;98457.16;4482599;31;33181;-80
2023/10/25 11:16:08;;;;;;;1.05;0.70;;;;;;;17.51;61.73;98457.16;4473707;31;35130;-80
2023/10/25 11:18:37;;;;;;;1.45;0.90;;;;;;;17.96;59.83;98453.47;4472896;31;32362;-80
2023/10/25 11:21:13;;;;;;;1.65;1.02;;;;;;;17.98;59.25;98443.72;4471673;31;34642;-80
2023/10/25 11:23:43;;;;;;;1.20;0.70;;;;;;;18.18;59.23;98442.44;4475723;32;34343;-80
2023/10/25 11:26:17;;;;;;;1.08;0.80;;;;;;;18.22;59.26;98443.94;4478636;31;34541;-80
2023/10/25 11:28:47;;;;;;;2.17;1.00;;;;;;;18.43;58.89;98446.09;4471532;31;34345;-79
2023/10/25 11:31:19;;;;;;;;;;;;;;;18.70;57.75;98448.69;4473934;32;33814;-79
2023/10/25 11:33:52;;;;;;;1.10;0.60;;;;;;;18.71;57.69;98445.97;4468685;31;33209;-80
2023/10/25 11:36:21;;;;;;;0.95;0.68;;;;;;;18.81;57.15;98450.66;4474508;32;34009;-83
2023/10/25 11:38:53;;;;;;;0.90;0.50;;;;;;;19.00;55.93;98451.09;4479300;32;34385;-80
2023/10/25 11:41:22;;;;;;;0.95;0.60;;;;;;;19.11;56.84;98459.13;4476401;32;34547;-80
2023/10/25 11:43:52;;;;;;;0.95;0.60;;;;;;;19.10;56.03;98460.03;4477443;31;33535;-82
2023/10/25 11:46:24;;;;;;;0.82;0.50;;;;;;;19.19;55.85;98445.44;4478004;32;33431;-80
2023/10/25 11:48:59;;;;;;;0.40;0.40;;;;;;;19.27;54.87;98452.81;4482630;32;34124;-81
2023/10/25 11:51:28;;;;;;;1.77;1.35;;;;;;;19.20;53.97;98441.84;4481797;32;33801;-80
2023/10/25 11:54:06;;;;;;;1.08;0.70;;;;;;;18.95;53.95;98446.16;4477269;32;33947;-80
2023/10/25 11:56:48;;;;;;;0.47;0.47;;;;;;;19.10;53.48;98441.62;4480630;32;34090;-80